Green Valley, Illinois
Current Conditions -  °F | °C
As of 11:54 PM on Tuesday 27 Jan 2015 (Local Time) from KPIA Reporting Station
Overcast Overcast  
Wind Chill: 25°   Ceiling: 1700
Heat Index: 31°   Visibility: 10mi
Dew Point: 24°   Wind: 6mph
Humidity: 76%   Direction: 150°SSE
Pressure: 30.26"   Gusts: NA
Location:  40.41°N, 89.64°W
Report Text: KPIA 280554Z 15005KT 10SM OVC017 M01/M04 A3026 RMK AO2 SLP255 T10061044 10000 21006 400171006 51007
Loading
Personal Weather Stations






























Interactive Weather Map New forecast layout! Learn more

10-Day Weather Forecast

Advertisements
Track Severe Weather on mobile